sensor_id;sensor_type;location;lat;lon;timestamp;P1;durP1;ratioP1;P2;durP2;ratioP2
7683;SDS011;3884;48.616;12.872;2022-07-06T00:02:12;5.80;;;3.63;;
7683;SDS011;3884;48.616;12.872;2022-07-06T00:04:39;5.83;;;3.40;;
7683;SDS011;3884;48.616;12.872;2022-07-06T00:07:06;6.37;;;3.30;;
7683;SDS011;3884;48.616;12.872;2022-07-06T00:09:33;4.57;;;3.10;;
7683;SDS011;3884;48.616;12.872;2022-07-06T00:12:01;5.13;;;3.20;;
7683;SDS011;3884;48.616;12.872;2022-07-06T00:14:28;4.87;;;3.17;;
7683;SDS011;3884;48.616;12.872;2022-07-06T00:16:55;5.00;;;3.30;;
7683;SDS011;3884;48.616;12.872;2022-07-06T00:19:22;3.50;;;3.07;;
7683;SDS011;3884;48.616;12.872;2022-07-06T00:21:49;3.40;;;2.70;;
7683;SDS011;3884;48.616;12.872;2022-07-06T00:24:16;6.17;;;3.20;;
7683;SDS011;3884;48.616;12.872;2022-07-06T00:26:44;4.60;;;2.80;;
7683;SDS011;3884;48.616;12.872;2022-07-06T00:29:12;7.73;;;3.33;;
7683;SDS011;3884;48.616;12.872;2022-07-06T00:31:39;5.80;;;3.40;;
7683;SDS011;3884;48.616;12.872;2022-07-06T00:34:06;5.43;;;3.57;;
7683;SDS011;3884;48.616;12.872;2022-07-06T00:36:33;5.63;;;2.90;;
7683;SDS011;3884;48.616;12.872;2022-07-06T00:39:00;4.97;;;3.50;;
7683;SDS011;3884;48.616;12.872;2022-07-06T00:41:27;4.23;;;3.23;;
7683;SDS011;3884;48.616;12.872;2022-07-06T00:43:55;6.93;;;3.40;;
7683;SDS011;3884;48.616;12.872;2022-07-06T00:46:28;4.23;;;3.40;;
7683;SDS011;3884;48.616;12.872;2022-07-06T00:48:57;6.27;;;3.50;;
7683;SDS011;3884;48.616;12.872;2022-07-06T00:51:25;7.00;;;3.87;;
7683;SDS011;3884;48.616;12.872;2022-07-06T00:53:57;11.70;;;3.30;;
7683;SDS011;3884;48.616;12.872;2022-07-06T00:56:25;7.93;;;4.17;;
7683;SDS011;3884;48.616;12.872;2022-07-06T00:58:54;7.03;;;3.37;;
7683;SDS011;3884;48.616;12.872;2022-07-06T01:01:21;4.73;;;3.70;;
7683;SDS011;3884;48.616;12.872;2022-07-06T01:03:50;4.83;;;3.23;;
7683;SDS011;3884;48.616;12.872;2022-07-06T01:06:16;4.93;;;3.20;;
7683;SDS011;3884;48.616;12.872;2022-07-06T01:08:43;10.33;;;3.47;;
7683;SDS011;3884;48.616;12.872;2022-07-06T01:11:10;5.30;;;3.70;;
7683;SDS011;3884;48.616;12.872;2022-07-06T01:13:37;5.60;;;3.77;;
7683;SDS011;3884;48.616;12.872;2022-07-06T01:16:05;5.43;;;3.33;;
7683;SDS011;3884;48.616;12.872;2022-07-06T01:18:32;5.00;;;3.27;;
7683;SDS011;3884;48.616;12.872;2022-07-06T01:21:08;6.10;;;3.80;;
7683;SDS011;3884;48.616;12.872;2022-07-06T01:23:39;6.27;;;3.57;;
7683;SDS011;3884;48.616;12.872;2022-07-06T01:26:08;4.27;;;3.80;;
7683;SDS011;3884;48.616;12.872;2022-07-06T01:28:36;6.30;;;4.17;;
7683;SDS011;3884;48.616;12.872;2022-07-06T01:31:03;5.67;;;3.70;;
7683;SDS011;3884;48.616;12.872;2022-07-06T01:33:30;5.03;;;4.03;;
7683;SDS011;3884;48.616;12.872;2022-07-06T01:35:58;6.23;;;3.60;;
7683;SDS011;3884;48.616;12.872;2022-07-06T01:38:26;4.17;;;3.53;;
7683;SDS011;3884;48.616;12.872;2022-07-06T01:40:53;8.13;;;4.17;;
7683;SDS011;3884;48.616;12.872;2022-07-06T01:43:20;7.07;;;3.97;;
7683;SDS011;3884;48.616;12.872;2022-07-06T01:45:47;7.23;;;3.90;;
7683;SDS011;3884;48.616;12.872;2022-07-06T01:48:13;8.53;;;4.23;;
7683;SDS011;3884;48.616;12.872;2022-07-06T01:50:40;6.60;;;3.80;;
7683;SDS011;3884;48.616;12.872;2022-07-06T01:53:07;10.83;;;4.10;;
7683;SDS011;3884;48.616;12.872;2022-07-06T01:55:35;6.57;;;4.00;;
7683;SDS011;3884;48.616;12.872;2022-07-06T01:58:02;4.37;;;3.50;;
7683;SDS011;3884;48.616;12.872;2022-07-06T02:00:29;8.03;;;3.70;;
7683;SDS011;3884;48.616;12.872;2022-07-06T02:02:57;4.87;;;4.13;;
7683;SDS011;3884;48.616;12.872;2022-07-06T02:05:24;4.53;;;3.90;;
7683;SDS011;3884;48.616;12.872;2022-07-06T02:07:50;8.33;;;4.63;;
7683;SDS011;3884;48.616;12.872;2022-07-06T02:10:17;7.63;;;4.00;;
7683;SDS011;3884;48.616;12.872;2022-07-06T02:12:46;6.67;;;3.90;;
7683;SDS011;3884;48.616;12.872;2022-07-06T02:15:13;7.73;;;3.77;;
7683;SDS011;3884;48.616;12.872;2022-07-06T02:17:40;8.70;;;4.10;;
7683;SDS011;3884;48.616;12.872;2022-07-06T02:20:07;6.13;;;3.83;;
7683;SDS011;3884;48.616;12.872;2022-07-06T02:22:35;5.43;;;3.73;;
7683;SDS011;3884;48.616;12.872;2022-07-06T02:25:02;6.57;;;3.80;;
7683;SDS011;3884;48.616;12.872;2022-07-06T02:27:30;6.00;;;3.80;;
7683;SDS011;3884;48.616;12.872;2022-07-06T02:29:59;6.80;;;3.50;;
7683;SDS011;3884;48.616;12.872;2022-07-06T02:32:29;4.17;;;3.07;;
7683;SDS011;3884;48.616;12.872;2022-07-06T02:34:57;8.43;;;3.27;;
7683;SDS011;3884;48.616;12.872;2022-07-06T02:37:24;3.77;;;2.93;;
7683;SDS011;3884;48.616;12.872;2022-07-06T02:39:51;4.13;;;2.80;;
7683;SDS011;3884;48.616;12.872;2022-07-06T02:42:19;3.53;;;3.23;;
7683;SDS011;3884;48.616;12.872;2022-07-06T02:44:46;4.87;;;3.37;;
7683;SDS011;3884;48.616;12.872;2022-07-06T02:47:15;5.60;;;3.53;;
7683;SDS011;3884;48.616;12.872;2022-07-06T02:49:42;5.03;;;3.30;;
7683;SDS011;3884;48.616;12.872;2022-07-06T02:52:09;3.87;;;3.30;;
7683;SDS011;3884;48.616;12.872;2022-07-06T02:54:36;6.93;;;3.93;;
7683;SDS011;3884;48.616;12.872;2022-07-06T02:57:03;6.70;;;3.70;;
7683;SDS011;3884;48.616;12.872;2022-07-06T02:59:30;5.20;;;3.70;;
7683;SDS011;3884;48.616;12.872;2022-07-06T03:01:57;6.47;;;3.77;;
7683;SDS011;3884;48.616;12.872;2022-07-06T03:04:25;7.27;;;4.13;;
7683;SDS011;3884;48.616;12.872;2022-07-06T03:06:52;7.37;;;3.73;;
7683;SDS011;3884;48.616;12.872;2022-07-06T03:09:19;8.33;;;3.83;;
7683;SDS011;3884;48.616;12.872;2022-07-06T03:11:47;5.80;;;3.80;;
7683;SDS011;3884;48.616;12.872;2022-07-06T03:14:14;7.73;;;3.87;;
7683;SDS011;3884;48.616;12.872;2022-07-06T03:16:45;4.97;;;3.50;;
7683;SDS011;3884;48.616;12.872;2022-07-06T03:19:12;8.77;;;4.20;;
7683;SDS011;3884;48.616;12.872;2022-07-06T03:21:40;6.07;;;3.50;;
7683;SDS011;3884;48.616;12.872;2022-07-06T03:24:07;5.47;;;3.43;;
7683;SDS011;3884;48.616;12.872;2022-07-06T03:26:34;6.03;;;3.33;;
7683;SDS011;3884;48.616;12.872;2022-07-06T03:29:01;6.93;;;3.40;;
7683;SDS011;3884;48.616;12.872;2022-07-06T03:31:28;8.53;;;4.10;;
7683;SDS011;3884;48.616;12.872;2022-07-06T03:33:56;6.73;;;3.97;;
7683;SDS011;3884;48.616;12.872;2022-07-06T03:36:24;7.37;;;4.40;;
7683;SDS011;3884;48.616;12.872;2022-07-06T03:38:53;9.33;;;4.83;;
7683;SDS011;3884;48.616;12.872;2022-07-06T03:41:22;7.73;;;4.90;;
7683;SDS011;3884;48.616;12.872;2022-07-06T03:43:49;6.50;;;4.40;;
7683;SDS011;3884;48.616;12.872;2022-07-06T03:46:16;7.13;;;4.10;;
7683;SDS011;3884;48.616;12.872;2022-07-06T03:48:43;8.07;;;5.10;;
7683;SDS011;3884;48.616;12.872;2022-07-06T03:51:11;8.67;;;4.63;;
7683;SDS011;3884;48.616;12.872;2022-07-06T03:53:39;7.47;;;4.90;;
7683;SDS011;3884;48.616;12.872;2022-07-06T03:56:07;7.17;;;4.33;;
7683;SDS011;3884;48.616;12.872;2022-07-06T03:58:53;5.47;;;4.07;;
7683;SDS011;3884;48.616;12.872;2022-07-06T04:01:21;7.23;;;4.23;;
7683;SDS011;3884;48.616;12.872;2022-07-06T04:03:49;6.03;;;4.30;;
7683;SDS011;3884;48.616;12.872;2022-07-06T04:06:16;7.60;;;4.37;;
7683;SDS011;3884;48.616;12.872;2022-07-06T04:08:43;8.13;;;4.50;;
7683;SDS011;3884;48.616;12.872;2022-07-06T04:11:12;5.70;;;3.90;;
7683;SDS011;3884;48.616;12.872;2022-07-06T04:13:39;7.63;;;3.87;;
7683;SDS011;3884;48.616;12.872;2022-07-06T04:16:07;6.53;;;4.00;;
7683;SDS011;3884;48.616;12.872;2022-07-06T04:18:34;6.97;;;3.97;;
7683;SDS011;3884;48.616;12.872;2022-07-06T04:21:02;7.63;;;4.10;;
7683;SDS011;3884;48.616;12.872;2022-07-06T04:23:32;5.60;;;3.90;;
7683;SDS011;3884;48.616;12.872;2022-07-06T04:26:01;9.00;;;4.20;;
7683;SDS011;3884;48.616;12.872;2022-07-06T04:28:32;5.60;;;4.03;;
7683;SDS011;3884;48.616;12.872;2022-07-06T04:30:59;10.23;;;4.07;;
7683;SDS011;3884;48.616;12.872;2022-07-06T04:33:26;5.80;;;3.93;;
7683;SDS011;3884;48.616;12.872;2022-07-06T04:35:54;5.83;;;4.10;;
7683;SDS011;3884;48.616;12.872;2022-07-06T04:38:26;7.43;;;3.63;;
7683;SDS011;3884;48.616;12.872;2022-07-06T04:40:57;6.43;;;3.90;;
7683;SDS011;3884;48.616;12.872;2022-07-06T04:43:25;5.50;;;4.13;;
7683;SDS011;3884;48.616;12.872;2022-07-06T04:45:53;5.43;;;3.87;;
7683;SDS011;3884;48.616;12.872;2022-07-06T04:48:20;5.57;;;3.90;;
7683;SDS011;3884;48.616;12.872;2022-07-06T04:50:47;5.40;;;3.47;;
7683;SDS011;3884;48.616;12.872;2022-07-06T04:53:20;5.50;;;3.73;;
7683;SDS011;3884;48.616;12.872;2022-07-06T04:55:48;4.03;;;3.00;;
7683;SDS011;3884;48.616;12.872;2022-07-06T04:58:16;3.87;;;2.90;;
7683;SDS011;3884;48.616;12.872;2022-07-06T05:00:45;4.40;;;3.00;;
7683;SDS011;3884;48.616;12.872;2022-07-06T05:03:13;4.97;;;3.00;;
7683;SDS011;3884;48.616;12.872;2022-07-06T05:05:40;3.33;;;2.97;;
7683;SDS011;3884;48.616;12.872;2022-07-06T05:08:08;3.93;;;2.80;;
7683;SDS011;3884;48.616;12.872;2022-07-06T05:10:35;6.10;;;3.00;;
7683;SDS011;3884;48.616;12.872;2022-07-06T05:13:02;5.07;;;2.80;;
7683;SDS011;3884;48.616;12.872;2022-07-06T05:15:29;2.63;;;2.43;;
7683;SDS011;3884;48.616;12.872;2022-07-06T05:17:56;3.20;;;2.73;;
7683;SDS011;3884;48.616;12.872;2022-07-06T05:20:25;5.27;;;2.70;;
7683;SDS011;3884;48.616;12.872;2022-07-06T05:22:52;8.93;;;3.33;;
7683;SDS011;3884;48.616;12.872;2022-07-06T05:25:23;4.13;;;2.97;;
7683;SDS011;3884;48.616;12.872;2022-07-06T05:27:51;5.77;;;2.90;;
7683;SDS011;3884;48.616;12.872;2022-07-06T05:30:18;3.93;;;3.10;;
7683;SDS011;3884;48.616;12.872;2022-07-06T05:32:45;2.93;;;2.57;;
7683;SDS011;3884;48.616;12.872;2022-07-06T05:35:12;2.87;;;2.67;;
7683;SDS011;3884;48.616;12.872;2022-07-06T05:37:40;2.63;;;2.37;;
7683;SDS011;3884;48.616;12.872;2022-07-06T05:40:08;4.77;;;2.53;;
7683;SDS011;3884;48.616;12.872;2022-07-06T05:42:36;2.70;;;2.50;;
7683;SDS011;3884;48.616;12.872;2022-07-06T05:45:04;4.67;;;2.70;;
7683;SDS011;3884;48.616;12.872;2022-07-06T05:47:32;5.97;;;2.50;;
7683;SDS011;3884;48.616;12.872;2022-07-06T05:50:16;3.40;;;2.70;;
7683;SDS011;3884;48.616;12.872;2022-07-06T05:52:58;5.10;;;3.23;;
7683;SDS011;3884;48.616;12.872;2022-07-06T05:55:28;3.67;;;2.33;;
7683;SDS011;3884;48.616;12.872;2022-07-06T05:57:57;4.03;;;2.50;;
7683;SDS011;3884;48.616;12.872;2022-07-06T06:00:27;3.27;;;2.40;;
7683;SDS011;3884;48.616;12.872;2022-07-06T06:02:59;3.93;;;2.77;;
7683;SDS011;3884;48.616;12.872;2022-07-06T06:05:26;6.33;;;2.70;;
7683;SDS011;3884;48.616;12.872;2022-07-06T06:07:59;4.07;;;2.40;;
7683;SDS011;3884;48.616;12.872;2022-07-06T06:10:26;3.67;;;2.97;;
7683;SDS011;3884;48.616;12.872;2022-07-06T06:12:56;3.60;;;2.53;;
7683;SDS011;3884;48.616;12.872;2022-07-06T06:15:24;2.67;;;2.47;;
7683;SDS011;3884;48.616;12.872;2022-07-06T06:17:51;4.37;;;2.90;;
7683;SDS011;3884;48.616;12.872;2022-07-06T06:20:18;4.87;;;2.47;;
7683;SDS011;3884;48.616;12.872;2022-07-06T06:22:45;3.80;;;2.57;;
7683;SDS011;3884;48.616;12.872;2022-07-06T06:25:15;2.90;;;2.40;;
7683;SDS011;3884;48.616;12.872;2022-07-06T06:27:43;3.67;;;2.90;;
7683;SDS011;3884;48.616;12.872;2022-07-06T06:30:10;3.90;;;2.60;;
7683;SDS011;3884;48.616;12.872;2022-07-06T06:32:38;5.80;;;2.80;;
7683;SDS011;3884;48.616;12.872;2022-07-06T06:35:06;4.50;;;2.90;;
7683;SDS011;3884;48.616;12.872;2022-07-06T06:37:33;3.87;;;2.60;;
7683;SDS011;3884;48.616;12.872;2022-07-06T06:40:00;3.50;;;2.60;;
7683;SDS011;3884;48.616;12.872;2022-07-06T06:42:28;3.73;;;2.80;;
7683;SDS011;3884;48.616;12.872;2022-07-06T06:44:57;3.03;;;2.60;;
7683;SDS011;3884;48.616;12.872;2022-07-06T06:47:23;3.63;;;2.73;;
7683;SDS011;3884;48.616;12.872;2022-07-06T06:49:50;4.73;;;3.30;;
7683;SDS011;3884;48.616;12.872;2022-07-06T06:52:17;4.23;;;2.70;;
7683;SDS011;3884;48.616;12.872;2022-07-06T06:54:44;2.60;;;2.33;;
7683;SDS011;3884;48.616;12.872;2022-07-06T06:57:11;3.10;;;2.80;;
7683;SDS011;3884;48.616;12.872;2022-07-06T06:59:39;4.87;;;2.73;;
7683;SDS011;3884;48.616;12.872;2022-07-06T07:02:06;4.47;;;2.80;;
7683;SDS011;3884;48.616;12.872;2022-07-06T07:04:33;3.67;;;2.77;;
7683;SDS011;3884;48.616;12.872;2022-07-06T07:07:00;2.83;;;2.60;;
7683;SDS011;3884;48.616;12.872;2022-07-06T07:09:26;3.93;;;2.70;;
7683;SDS011;3884;48.616;12.872;2022-07-06T07:11:53;4.03;;;2.83;;
7683;SDS011;3884;48.616;12.872;2022-07-06T07:14:21;5.63;;;2.50;;
7683;SDS011;3884;48.616;12.872;2022-07-06T07:16:49;3.17;;;2.50;;
7683;SDS011;3884;48.616;12.872;2022-07-06T07:19:16;3.30;;;2.60;;
7683;SDS011;3884;48.616;12.872;2022-07-06T07:21:42;3.10;;;2.40;;
7683;SDS011;3884;48.616;12.872;2022-07-06T07:24:09;6.33;;;2.47;;
7683;SDS011;3884;48.616;12.872;2022-07-06T07:26:36;4.27;;;2.67;;
7683;SDS011;3884;48.616;12.872;2022-07-06T07:29:03;4.40;;;2.70;;
7683;SDS011;3884;48.616;12.872;2022-07-06T07:31:30;4.07;;;2.60;;
7683;SDS011;3884;48.616;12.872;2022-07-06T07:33:58;3.43;;;2.63;;
7683;SDS011;3884;48.616;12.872;2022-07-06T07:36:25;5.13;;;2.40;;
7683;SDS011;3884;48.616;12.872;2022-07-06T07:38:52;3.43;;;2.40;;
7683;SDS011;3884;48.616;12.872;2022-07-06T07:41:19;3.13;;;2.37;;
7683;SDS011;3884;48.616;12.872;2022-07-06T07:43:46;2.73;;;2.50;;
7683;SDS011;3884;48.616;12.872;2022-07-06T07:46:13;4.13;;;2.50;;
7683;SDS011;3884;48.616;12.872;2022-07-06T07:48:40;4.27;;;2.60;;
7683;SDS011;3884;48.616;12.872;2022-07-06T07:51:08;5.80;;;2.83;;
7683;SDS011;3884;48.616;12.872;2022-07-06T07:53:35;2.63;;;2.43;;
7683;SDS011;3884;48.616;12.872;2022-07-06T07:56:02;4.23;;;2.60;;
7683;SDS011;3884;48.616;12.872;2022-07-06T07:58:29;2.57;;;2.33;;
7683;SDS011;3884;48.616;12.872;2022-07-06T08:00:57;5.20;;;2.70;;
7683;SDS011;3884;48.616;12.872;2022-07-06T08:03:23;3.00;;;2.50;;
7683;SDS011;3884;48.616;12.872;2022-07-06T08:05:50;3.90;;;2.57;;
7683;SDS011;3884;48.616;12.872;2022-07-06T08:08:19;4.70;;;2.40;;
7683;SDS011;3884;48.616;12.872;2022-07-06T08:10:46;2.60;;;2.20;;
7683;SDS011;3884;48.616;12.872;2022-07-06T08:13:13;5.37;;;2.63;;
7683;SDS011;3884;48.616;12.872;2022-07-06T08:15:40;5.47;;;2.67;;
7683;SDS011;3884;48.616;12.872;2022-07-06T08:18:07;4.80;;;2.70;;
7683;SDS011;3884;48.616;12.872;2022-07-06T08:20:35;2.67;;;2.47;;
7683;SDS011;3884;48.616;12.872;2022-07-06T08:23:02;3.07;;;2.40;;
7683;SDS011;3884;48.616;12.872;2022-07-06T08:25:30;4.40;;;2.60;;
7683;SDS011;3884;48.616;12.872;2022-07-06T08:27:58;3.47;;;2.83;;
7683;SDS011;3884;48.616;12.872;2022-07-06T08:30:24;3.23;;;2.30;;
7683;SDS011;3884;48.616;12.872;2022-07-06T08:32:51;4.27;;;2.40;;
7683;SDS011;3884;48.616;12.872;2022-07-06T08:35:18;5.40;;;2.53;;
7683;SDS011;3884;48.616;12.872;2022-07-06T08:37:45;4.77;;;2.50;;
7683;SDS011;3884;48.616;12.872;2022-07-06T08:40:12;2.70;;;2.50;;
7683;SDS011;3884;48.616;12.872;2022-07-06T08:42:40;4.20;;;2.67;;
7683;SDS011;3884;48.616;12.872;2022-07-06T08:45:10;3.53;;;2.43;;
7683;SDS011;3884;48.616;12.872;2022-07-06T08:47:37;3.23;;;2.40;;
7683;SDS011;3884;48.616;12.872;2022-07-06T08:50:04;2.77;;;2.47;;
7683;SDS011;3884;48.616;12.872;2022-07-06T08:52:33;5.80;;;2.60;;
7683;SDS011;3884;48.616;12.872;2022-07-06T08:55:00;4.23;;;2.90;;
7683;SDS011;3884;48.616;12.872;2022-07-06T08:57:29;2.60;;;2.40;;
7683;SDS011;3884;48.616;12.872;2022-07-06T08:59:57;5.30;;;2.40;;
7683;SDS011;3884;48.616;12.872;2022-07-06T09:02:25;5.10;;;2.43;;
7683;SDS011;3884;48.616;12.872;2022-07-06T09:04:53;2.97;;;2.40;;
7683;SDS011;3884;48.616;12.872;2022-07-06T09:07:22;4.03;;;2.60;;
7683;SDS011;3884;48.616;12.872;2022-07-06T09:09:50;4.33;;;2.50;;
7683;SDS011;3884;48.616;12.872;2022-07-06T09:12:18;3.40;;;2.60;;
7683;SDS011;3884;48.616;12.872;2022-07-06T09:14:45;2.87;;;2.40;;
7683;SDS011;3884;48.616;12.872;2022-07-06T09:17:14;6.37;;;2.40;;
7683;SDS011;3884;48.616;12.872;2022-07-06T09:19:41;4.67;;;2.67;;
7683;SDS011;3884;48.616;12.872;2022-07-06T09:22:11;6.57;;;2.30;;
7683;SDS011;3884;48.616;12.872;2022-07-06T09:24:51;5.40;;;2.80;;
7683;SDS011;3884;48.616;12.872;2022-07-06T09:27:18;2.57;;;2.20;;
7683;SDS011;3884;48.616;12.872;2022-07-06T09:29:45;3.27;;;2.73;;
7683;SDS011;3884;48.616;12.872;2022-07-06T09:32:13;3.10;;;2.80;;
7683;SDS011;3884;48.616;12.872;2022-07-06T09:34:46;3.20;;;2.50;;
7683;SDS011;3884;48.616;12.872;2022-07-06T09:37:13;4.43;;;2.43;;
7683;SDS011;3884;48.616;12.872;2022-07-06T09:39:41;6.53;;;2.50;;
7683;SDS011;3884;48.616;12.872;2022-07-06T09:42:09;4.07;;;2.47;;
7683;SDS011;3884;48.616;12.872;2022-07-06T09:44:37;3.27;;;2.43;;
7683;SDS011;3884;48.616;12.872;2022-07-06T09:47:06;3.93;;;2.50;;
7683;SDS011;3884;48.616;12.872;2022-07-06T09:49:36;3.77;;;2.60;;
7683;SDS011;3884;48.616;12.872;2022-07-06T09:52:04;3.73;;;2.50;;
7683;SDS011;3884;48.616;12.872;2022-07-06T09:54:33;7.47;;;2.53;;
7683;SDS011;3884;48.616;12.872;2022-07-06T09:57:01;8.60;;;2.83;;
7683;SDS011;3884;48.616;12.872;2022-07-06T09:59:29;4.93;;;2.67;;
7683;SDS011;3884;48.616;12.872;2022-07-06T10:01:59;4.27;;;2.70;;
7683;SDS011;3884;48.616;12.872;2022-07-06T10:04:27;4.27;;;2.60;;
7683;SDS011;3884;48.616;12.872;2022-07-06T10:06:57;5.30;;;3.53;;
7683;SDS011;3884;48.616;12.872;2022-07-06T10:09:25;5.50;;;2.60;;
7683;SDS011;3884;48.616;12.872;2022-07-06T10:11:56;3.10;;;2.60;;
7683;SDS011;3884;48.616;12.872;2022-07-06T10:14:25;3.60;;;2.60;;
7683;SDS011;3884;48.616;12.872;2022-07-06T10:16:54;4.97;;;2.87;;
7683;SDS011;3884;48.616;12.872;2022-07-06T10:19:22;3.30;;;2.50;;
7683;SDS011;3884;48.616;12.872;2022-07-06T10:21:49;6.20;;;2.77;;
7683;SDS011;3884;48.616;12.872;2022-07-06T10:24:19;3.93;;;2.70;;
7683;SDS011;3884;48.616;12.872;2022-07-06T10:26:47;4.13;;;2.80;;
7683;SDS011;3884;48.616;12.872;2022-07-06T10:29:15;5.83;;;2.67;;
7683;SDS011;3884;48.616;12.872;2022-07-06T10:31:43;2.93;;;2.63;;
7683;SDS011;3884;48.616;12.872;2022-07-06T10:34:12;2.83;;;2.33;;
7683;SDS011;3884;48.616;12.872;2022-07-06T10:36:41;3.17;;;2.40;;
7683;SDS011;3884;48.616;12.872;2022-07-06T10:39:09;5.77;;;2.77;;
7683;SDS011;3884;48.616;12.872;2022-07-06T10:41:55;4.33;;;2.80;;
7683;SDS011;3884;48.616;12.872;2022-07-06T10:44:23;5.27;;;2.43;;
7683;SDS011;3884;48.616;12.872;2022-07-06T10:46:51;5.50;;;2.80;;
7683;SDS011;3884;48.616;12.872;2022-07-06T10:49:19;4.40;;;2.60;;
7683;SDS011;3884;48.616;12.872;2022-07-06T10:51:47;3.47;;;2.40;;
7683;SDS011;3884;48.616;12.872;2022-07-06T10:54:16;7.47;;;2.63;;
7683;SDS011;3884;48.616;12.872;2022-07-06T10:56:44;2.83;;;2.50;;
7683;SDS011;3884;48.616;12.872;2022-07-06T10:59:15;4.77;;;2.40;;
7683;SDS011;3884;48.616;12.872;2022-07-06T11:04:40;3.37;;;2.40;;
7683;SDS011;3884;48.616;12.872;2022-07-06T11:07:09;3.53;;;2.37;;
7683;SDS011;3884;48.616;12.872;2022-07-06T11:09:36;2.50;;;2.30;;
7683;SDS011;3884;48.616;12.872;2022-07-06T11:12:14;2.83;;;2.13;;
7683;SDS011;3884;48.616;12.872;2022-07-06T11:14:45;4.17;;;2.20;;
7683;SDS011;3884;48.616;12.872;2022-07-06T11:17:12;2.97;;;2.50;;
7683;SDS011;3884;48.616;12.872;2022-07-06T11:19:47;3.60;;;2.23;;
7683;SDS011;3884;48.616;12.872;2022-07-06T11:22:16;2.23;;;2.03;;
7683;SDS011;3884;48.616;12.872;2022-07-06T11:24:44;3.23;;;2.10;;
7683;SDS011;3884;48.616;12.872;2022-07-06T11:27:12;2.20;;;2.00;;
7683;SDS011;3884;48.616;12.872;2022-07-06T11:29:39;2.73;;;2.20;;
7683;SDS011;3884;48.616;12.872;2022-07-06T11:32:08;2.57;;;2.30;;
7683;SDS011;3884;48.616;12.872;2022-07-06T11:34:36;3.60;;;2.27;;
7683;SDS011;3884;48.616;12.872;2022-07-06T11:37:06;3.63;;;2.30;;
7683;SDS011;3884;48.616;12.872;2022-07-06T11:39:34;3.03;;;2.40;;
7683;SDS011;3884;48.616;12.872;2022-07-06T11:42:02;5.43;;;2.40;;
7683;SDS011;3884;48.616;12.872;2022-07-06T11:44:30;2.43;;;2.20;;
7683;SDS011;3884;48.616;12.872;2022-07-06T11:46:57;3.67;;;2.57;;
7683;SDS011;3884;48.616;12.872;2022-07-06T11:49:28;2.93;;;2.03;;
7683;SDS011;3884;48.616;12.872;2022-07-06T11:51:56;3.63;;;2.20;;
7683;SDS011;3884;48.616;12.872;2022-07-06T11:54:23;2.27;;;2.00;;
7683;SDS011;3884;48.616;12.872;2022-07-06T11:56:52;3.67;;;2.37;;
7683;SDS011;3884;48.616;12.872;2022-07-06T11:59:22;2.40;;;2.20;;
7683;SDS011;3884;48.616;12.872;2022-07-06T12:01:57;3.90;;;2.43;;
7683;SDS011;3884;48.616;12.872;2022-07-06T12:04:24;2.53;;;2.33;;
7683;SDS011;3884;48.616;12.872;2022-07-06T12:06:53;2.87;;;2.40;;
7683;SDS011;3884;48.616;12.872;2022-07-06T12:09:20;2.87;;;2.63;;
7683;SDS011;3884;48.616;12.872;2022-07-06T12:11:48;3.17;;;2.23;;
7683;SDS011;3884;48.616;12.872;2022-07-06T12:14:15;3.97;;;2.30;;
7683;SDS011;3884;48.616;12.872;2022-07-06T12:16:43;3.43;;;2.40;;
7683;SDS011;3884;48.616;12.872;2022-07-06T12:19:11;4.73;;;2.40;;
7683;SDS011;3884;48.616;12.872;2022-07-06T12:21:42;4.83;;;2.60;;
7683;SDS011;3884;48.616;12.872;2022-07-06T12:24:16;2.30;;;2.07;;
7683;SDS011;3884;48.616;12.872;2022-07-06T12:26:44;2.53;;;2.33;;
7683;SDS011;3884;48.616;12.872;2022-07-06T12:29:12;4.63;;;2.30;;
7683;SDS011;3884;48.616;12.872;2022-07-06T12:31:40;3.73;;;2.40;;
7683;SDS011;3884;48.616;12.872;2022-07-06T12:34:12;4.33;;;2.70;;
7683;SDS011;3884;48.616;12.872;2022-07-06T12:36:44;3.53;;;2.10;;
7683;SDS011;3884;48.616;12.872;2022-07-06T12:39:13;2.77;;;2.20;;
7683;SDS011;3884;48.616;12.872;2022-07-06T12:41:45;2.80;;;2.40;;
7683;SDS011;3884;48.616;12.872;2022-07-06T12:44:13;2.30;;;2.10;;
7683;SDS011;3884;48.616;12.872;2022-07-06T12:46:43;2.20;;;2.00;;
7683;SDS011;3884;48.616;12.872;2022-07-06T12:49:11;2.90;;;2.13;;
7683;SDS011;3884;48.616;12.872;2022-07-06T12:51:49;2.80;;;2.10;;
7683;SDS011;3884;48.616;12.872;2022-07-06T12:54:18;2.20;;;2.00;;
7683;SDS011;3884;48.616;12.872;2022-07-06T12:56:55;3.27;;;2.27;;
7683;SDS011;3884;48.616;12.872;2022-07-06T12:59:26;3.10;;;2.30;;
7683;SDS011;3884;48.616;12.872;2022-07-06T13:01:54;3.07;;;2.13;;
7683;SDS011;3884;48.616;12.872;2022-07-06T13:04:22;3.43;;;2.30;;
7683;SDS011;3884;48.616;12.872;2022-07-06T13:06:49;2.00;;;1.90;;
7683;SDS011;3884;48.616;12.872;2022-07-06T13:09:16;2.03;;;1.83;;
7683;SDS011;3884;48.616;12.872;2022-07-06T13:11:46;3.63;;;2.20;;
7683;SDS011;3884;48.616;12.872;2022-07-06T13:14:12;4.90;;;2.10;;
7683;SDS011;3884;48.616;12.872;2022-07-06T13:16:40;2.70;;;1.83;;
7683;SDS011;3884;48.616;12.872;2022-07-06T13:19:07;4.07;;;1.90;;
7683;SDS011;3884;48.616;12.872;2022-07-06T13:21:34;3.43;;;2.00;;
7683;SDS011;3884;48.616;12.872;2022-07-06T13:24:01;1.97;;;1.67;;
7683;SDS011;3884;48.616;12.872;2022-07-06T13:26:29;2.13;;;1.90;;
7683;SDS011;3884;48.616;12.872;2022-07-06T13:28:58;2.93;;;2.10;;
7683;SDS011;3884;48.616;12.872;2022-07-06T13:31:25;3.40;;;1.90;;
7683;SDS011;3884;48.616;12.872;2022-07-06T13:33:52;2.30;;;1.90;;
7683;SDS011;3884;48.616;12.872;2022-07-06T13:36:19;2.30;;;2.10;;
7683;SDS011;3884;48.616;12.872;2022-07-06T13:38:47;2.23;;;2.03;;
7683;SDS011;3884;48.616;12.872;2022-07-06T13:41:13;2.10;;;1.90;;
7683;SDS011;3884;48.616;12.872;2022-07-06T13:43:42;3.13;;;2.10;;
7683;SDS011;3884;48.616;12.872;2022-07-06T13:46:09;6.00;;;2.10;;
7683;SDS011;3884;48.616;12.872;2022-07-06T13:48:36;3.40;;;1.93;;
7683;SDS011;3884;48.616;12.872;2022-07-06T13:51:04;3.40;;;2.00;;
7683;SDS011;3884;48.616;12.872;2022-07-06T13:53:30;2.40;;;1.73;;
7683;SDS011;3884;48.616;12.872;2022-07-06T13:55:57;3.13;;;1.80;;
7683;SDS011;3884;48.616;12.872;2022-07-06T13:58:25;7.50;;;1.80;;
7683;SDS011;3884;48.616;12.872;2022-07-06T14:00:53;2.17;;;1.73;;
7683;SDS011;3884;48.616;12.872;2022-07-06T14:03:20;2.80;;;1.80;;
7683;SDS011;3884;48.616;12.872;2022-07-06T14:05:52;2.30;;;1.80;;
7683;SDS011;3884;48.616;12.872;2022-07-06T14:08:20;2.60;;;2.23;;
7683;SDS011;3884;48.616;12.872;2022-07-06T14:10:47;3.17;;;1.97;;
7683;SDS011;3884;48.616;12.872;2022-07-06T14:13:14;3.00;;;1.80;;
7683;SDS011;3884;48.616;12.872;2022-07-06T14:15:41;3.23;;;1.80;;
7683;SDS011;3884;48.616;12.872;2022-07-06T14:18:09;3.27;;;2.00;;
7683;SDS011;3884;48.616;12.872;2022-07-06T14:20:36;3.50;;;2.00;;
7683;SDS011;3884;48.616;12.872;2022-07-06T14:23:03;2.70;;;1.90;;
7683;SDS011;3884;48.616;12.872;2022-07-06T14:25:30;3.47;;;1.80;;
7683;SDS011;3884;48.616;12.872;2022-07-06T14:27:57;4.30;;;1.93;;
7683;SDS011;3884;48.616;12.872;2022-07-06T14:30:24;4.63;;;1.90;;
7683;SDS011;3884;48.616;12.872;2022-07-06T14:32:51;1.73;;;1.60;;
7683;SDS011;3884;48.616;12.872;2022-07-06T14:35:19;2.10;;;1.73;;
7683;SDS011;3884;48.616;12.872;2022-07-06T14:37:46;2.77;;;1.60;;
7683;SDS011;3884;48.616;12.872;2022-07-06T14:40:14;2.20;;;1.70;;
7683;SDS011;3884;48.616;12.872;2022-07-06T14:42:41;4.27;;;1.90;;
7683;SDS011;3884;48.616;12.872;2022-07-06T14:45:08;2.87;;;1.70;;
7683;SDS011;3884;48.616;12.872;2022-07-06T14:47:35;3.37;;;1.90;;
7683;SDS011;3884;48.616;12.872;2022-07-06T14:50:02;2.37;;;1.80;;
7683;SDS011;3884;48.616;12.872;2022-07-06T14:52:31;4.43;;;1.80;;
7683;SDS011;3884;48.616;12.872;2022-07-06T14:54:58;5.57;;;1.70;;
7683;SDS011;3884;48.616;12.872;2022-07-06T14:57:26;5.20;;;1.97;;
7683;SDS011;3884;48.616;12.872;2022-07-06T14:59:53;2.47;;;1.73;;
7683;SDS011;3884;48.616;12.872;2022-07-06T15:02:19;4.20;;;1.97;;
7683;SDS011;3884;48.616;12.872;2022-07-06T15:04:46;2.10;;;1.60;;
7683;SDS011;3884;48.616;12.872;2022-07-06T15:07:13;2.47;;;1.60;;
7683;SDS011;3884;48.616;12.872;2022-07-06T15:09:42;2.23;;;1.90;;